ENTC

Tromsø Airport

Tromsø, Norway
METAR ENTC 171020Z 19021KT CAVOK M02/M08 Q0997 NOSIG RMK WIND 2600FT /////KT
Observed Flight Rules
Jan-17 @ 10:20 UTC (38 minutes ago) Visual Flight Rules
Wind Visibility Clouds
190° at 21 knots 10,000+ meters
  • Clear skies
Temperatures Readings
Current -2°C / 28°F
Dewpoint -8°C / 18°F
Humidity 64%
Altimeter 29.44" Hg
Pressure 997 hPa
Elevation 10
METAR ENTC 171020Z 19021KT CAVOK M02/M08 Q0997 NOSIG RMK WIND 2600FT /////KT
Observed Flight Rules
Jan-17 @ 10:20 UTC
(38 minutes ago)
VFR
Wind Visibility
190° at 21 knots 10,000+ meters
Clouds
  • Clear skies
Temperature Dewpoint
-2°C / 28°F -8°C / 18°F
Humidity Altimeter Pressure
64% 29.44" Hg 997 hPa